CFD9 weather

CLOSED Bjorgum Farm Airport
Bjorgum Farm, Alberta, Canada

Public forecast

Using degrees Celsius for public forecast. Weather courtesy of forecast.io.

Closest aviation weather report (METAR) to Bjorgum Farm Airport

Closest report is Edmonton International Airport, 31.1 nm (57.6 km) WNW. Retrieved 2020/08/04 11:00 UTC (24 minutes ago):

CYEG 041100Z 26004KT 20SM BKN081 BKN110 BKN250 11/11 A3003 RMK AC5AC1CI1 AC INVDG FM W SH NW QUAD SLP176

Closest aviation forecast (TAF) to Bjorgum Farm Airport

Closest forecast is Edmonton International Airport, 31.1 nm (57.6 km) WNW. Retrieved 2020/08/04 09:42 UTC (2 hours ago):

TAF TAF CYEG 040838Z 0409/0506 26006KT P6SM FEW090 SCT250 FM041200 28006KT P6SM SCT080 TEMPO 0412/0416 BKN080 FM041600 30008KT P6SM FEW060 BECMG 0418/0420 24008KT FM050100 VRB03KT P6SM SKC RMK NXT FCST BY 041200Z